Time;durP1;ratioP1;P1;durP2;ratioP2;P2;SDS_P1;SDS_P2;PMS_P1;PMS_P2;Temp;Humidity;BMP_temperature;BMP_pressure;BME280_temperature;BME280_humidity;BME280_pressure;Samples;Min_cycle;Max_cycle;Signal;HPM_P1;HPM_P2
2023/08/08 00:01:27;;;;;;;1.02;0.93;;;;;;;18.46;83.34;94706.34;5073339;28;20174;-78
2023/08/08 00:03:53;;;;;;;1.10;1.00;;;;;;;18.38;83.24;94709.53;5073136;28;20182;-79
2023/08/08 00:06:18;;;;;;;2.13;1.17;;;;;;;18.11;83.36;94703.56;5069824;28;20438;-78
2023/08/08 00:08:43;;;;;;;1.30;1.20;;;;;;;18.17;83.60;94720.38;5060707;28;20206;-78
2023/08/08 00:11:09;;;;;;;1.67;1.40;;;;;;;18.14;83.84;94712.91;5049686;28;20197;-78
2023/08/08 00:13:35;;;;;;;1.10;1.00;;;;;;;18.14;83.50;94715.59;5066025;28;20642;-78
2023/08/08 00:16:00;;;;;;;1.20;1.10;;;;;;;18.08;83.46;94714.75;5057758;28;20175;-78
2023/08/08 00:18:25;;;;;;;0.90;0.90;;;;;;;17.96;83.20;94712.31;5064846;28;20413;-78
2023/08/08 00:20:51;;;;;;;1.33;1.05;;;;;;;17.91;83.28;94706.94;5063967;28;20183;-78
2023/08/08 00:23:16;;;;;;;1.40;1.30;;;;;;;17.89;84.42;94710.94;5059321;28;20178;-78
2023/08/08 00:25:42;;;;;;;1.02;0.95;;;;;;;17.86;84.74;94704.28;5064951;28;20607;-78
2023/08/08 00:28:07;;;;;;;1.10;1.00;;;;;;;17.83;84.26;94714.63;5064705;28;20213;-78
2023/08/08 00:30:32;;;;;;;3.17;2.35;;;;;;;17.74;83.77;94724.97;5058906;28;20880;-78
2023/08/08 00:32:58;;;;;;;1.45;0.93;;;;;;;17.80;83.82;94728.47;5061719;28;20182;-78
2023/08/08 00:35:23;;;;;;;1.13;1.02;;;;;;;17.59;83.53;94693.72;5063223;28;20262;-78
2023/08/08 00:37:49;;;;;;;11.98;7.88;;;;;;;17.73;84.49;94710.84;5066075;28;20163;-78
2023/08/08 00:40:14;;;;;;;2.15;1.33;;;;;;;17.81;84.71;94722.09;5063636;28;20249;-78
2023/08/08 00:42:40;;;;;;;2.60;1.92;;;;;;;17.83;84.85;94720.75;5061533;28;20202;-78
2023/08/08 00:45:06;;;;;;;1.63;1.30;;;;;;;17.83;84.12;94723.41;5059176;28;20755;-78
2023/08/08 00:47:32;;;;;;;1.80;1.02;;;;;;;17.79;84.33;94732.19;5056636;28;20654;-77
2023/08/08 00:49:59;;;;;;;1.20;1.10;;;;;;;17.79;83.92;94743.66;5062674;28;20932;-77
2023/08/08 00:52:25;;;;;;;1.23;1.13;;;;;;;17.57;83.62;94743.75;5060200;28;20408;-77
2023/08/08 00:54:51;;;;;;;1.65;1.05;;;;;;;17.35;84.30;94711.16;5047099;28;20425;-77
2023/08/08 00:57:18;;;;;;;1.50;1.00;;;;;;;17.38;84.11;94729.28;5060108;28;20513;-77
2023/08/08 00:59:43;;;;;;;1.65;1.20;;;;;;;17.44;84.35;94730.91;5063739;28;20724;-77
2023/08/08 01:02:09;;;;;;;1.50;1.10;;;;;;;17.28;83.52;94719.34;5055905;28;20415;-77
2023/08/08 01:04:34;;;;;;;1.33;1.23;;;;;;;17.33;84.47;94723.91;5063029;28;20309;-78
2023/08/08 01:07:22;;;;;;;2.30;1.10;;;;;;;17.51;83.59;94746.63;5058175;28;20252;-78
2023/08/08 01:10:16;;;;;;;1.40;1.30;;;;;;;17.60;84.01;94759.22;5058385;28;20175;-78
2023/08/08 01:12:46;;;;;;;1.50;1.40;;;;;;;17.50;83.53;94739.72;5052351;28;20310;-78
2023/08/08 01:15:13;;;;;;;1.80;0.90;;;;;;;17.52;83.62;94741.06;5061268;28;20175;-78
2023/08/08 01:17:41;;;;;;;1.80;1.20;;;;;;;17.39;82.68;94732.72;5064719;28;20171;-78
2023/08/08 01:20:08;;;;;;;1.20;1.10;;;;;;;17.39;83.03;94746.81;5063598;28;20405;-78
2023/08/08 01:22:42;;;;;;;1.35;1.23;;;;;;;17.46;82.85;94750.09;5060771;28;20182;-78
2023/08/08 01:25:09;;;;;;;1.00;1.00;;;;;;;17.49;83.11;94754.88;5062052;28;20178;-78
2023/08/08 01:27:35;;;;;;;1.27;1.13;;;;;;;17.44;82.94;94748.72;5059450;28;20452;-78
2023/08/08 01:30:00;;;;;;;2.17;1.10;;;;;;;17.45;83.05;94753.81;5056251;28;20794;-78
2023/08/08 01:32:25;;;;;;;1.05;1.00;;;;;;;17.48;83.53;94758.59;5045949;28;20182;-78
2023/08/08 01:34:51;;;;;;;2.20;1.15;;;;;;;17.45;82.31;94758.31;5060588;28;20257;-78
2023/08/08 01:37:27;;;;;;;2.72;1.50;;;;;;;17.41;81.79;94773.97;5057487;28;20250;-78
2023/08/08 01:39:54;;;;;;;1.35;1.25;;;;;;;17.25;82.43;94777.59;5062394;28;20405;-78
2023/08/08 01:42:23;;;;;;;1.20;1.05;;;;;;;17.19;83.53;94778.63;5063581;28;20406;-78
2023/08/08 01:44:49;;;;;;;3.10;1.37;;;;;;;17.20;82.57;94791.66;5059760;28;20431;-77
2023/08/08 01:47:14;;;;;;;1.30;1.20;;;;;;;17.13;83.39;94791.03;5058762;28;20443;-78
2023/08/08 01:49:40;;;;;;;1.30;1.20;;;;;;;17.06;82.76;94774.50;5060282;28;20793;-78
2023/08/08 01:52:06;;;;;;;1.43;1.33;;;;;;;17.18;83.61;94784.97;5063656;28;20491;-78
2023/08/08 01:54:31;;;;;;;1.30;1.20;;;;;;;17.25;83.03;94790.91;5059674;28;20182;-78
2023/08/08 01:56:56;;;;;;;1.17;1.05;;;;;;;17.23;83.36;94799.13;5058990;28;20278;-78
2023/08/08 01:59:22;;;;;;;1.08;1.08;;;;;;;17.30;83.18;94804.22;5059705;28;20236;-78
2023/08/08 02:01:48;;;;;;;1.95;1.10;;;;;;;17.18;82.91;94796.44;5064779;28;20417;-78
2023/08/08 02:04:13;;;;;;;2.00;1.00;;;;;;;17.29;83.20;94810.63;5057561;28;20186;-78
2023/08/08 02:06:38;;;;;;;0.95;0.93;;;;;;;17.25;83.01;94804.19;5061769;28;20654;-78
2023/08/08 02:09:04;;;;;;;1.40;1.13;;;;;;;16.95;83.87;94810.81;5057061;28;20438;-78
2023/08/08 02:11:29;;;;;;;1.40;1.30;;;;;;;16.68;84.91;94815.34;5055505;28;20450;-78
2023/08/08 02:13:54;;;;;;;1.17;1.10;;;;;;;16.55;85.33;94805.06;5053664;28;20502;-78
2023/08/08 02:16:20;;;;;;;1.40;1.30;;;;;;;16.47;86.23;94806.31;5063326;28;20782;-78
2023/08/08 02:18:45;;;;;;;4.32;1.40;;;;;;;16.65;86.35;94821.16;5064269;28;20257;-78
2023/08/08 02:21:11;;;;;;;2.57;1.40;;;;;;;16.64;85.67;94827.53;5058879;28;21227;-78
2023/08/08 02:23:36;;;;;;;2.17;1.35;;;;;;;16.61;86.05;94817.38;5026001;28;20506;-78
2023/08/08 02:26:02;;;;;;;2.93;1.40;;;;;;;16.67;85.91;94823.56;5053939;28;20415;-78
2023/08/08 02:28:27;;;;;;;1.40;1.30;;;;;;;16.70;85.87;94831.84;5049736;28;20489;-78
2023/08/08 02:30:53;;;;;;;1.30;1.20;;;;;;;16.68;86.01;94838.47;5037901;28;20425;-78
2023/08/08 02:33:19;;;;;;;2.83;1.10;;;;;;;16.75;85.51;94834.56;5054964;28;20206;-78
2023/08/08 02:35:44;;;;;;;1.43;1.20;;;;;;;16.71;85.83;94833.44;5053372;28;20501;-78
2023/08/08 02:38:10;;;;;;;1.40;1.30;;;;;;;16.91;85.61;94823.03;5054971;28;20467;-78
2023/08/08 02:40:35;;;;;;;1.35;1.25;;;;;;;16.94;84.81;94801.28;5061731;28;20300;-78
2023/08/08 02:43:01;;;;;;;3.17;1.60;;;;;;;16.86;84.53;94804.38;5058661;28;20270;-78
2023/08/08 02:45:26;;;;;;;1.30;1.20;;;;;;;16.98;85.20;94839.59;5062304;28;20930;-78
2023/08/08 02:47:51;;;;;;;2.60;1.57;;;;;;;16.75;86.07;94839.88;5067220;28;20429;-78
2023/08/08 02:50:17;;;;;;;2.67;1.80;;;;;;;16.52;86.84;94846.22;5069212;28;20474;-78
2023/08/08 02:52:43;;;;;;;4.50;1.90;;;;;;;16.37;88.39;94832.75;5062105;28;20451;-77
2023/08/08 02:55:08;;;;;;;1.60;1.50;;;;;;;16.62;88.21;94847.44;5064212;28;20190;-78
2023/08/08 02:57:34;;;;;;;5.20;1.67;;;;;;;16.68;87.01;94844.59;5061363;28;20189;-78
2023/08/08 02:59:59;;;;;;;1.67;1.58;;;;;;;16.70;87.76;94860.28;5066809;28;20194;-78
2023/08/08 03:02:25;;;;;;;2.03;1.83;;;;;;;16.48;88.53;94863.72;5062752;28;20413;-78
2023/08/08 03:04:51;;;;;;;2.63;1.80;;;;;;;16.40;89.15;94861.50;5062524;28;20893;-78
2023/08/08 03:07:16;;;;;;;1.57;1.47;;;;;;;16.44;88.86;94843.19;5062470;28;20436;-78
2023/08/08 03:09:41;;;;;;;2.53;1.67;;;;;;;16.66;88.19;94862.66;5063268;28;20179;-78
2023/08/08 03:12:07;;;;;;;2.35;1.70;;;;;;;16.72;87.33;94851.00;5062873;28;20765;-78
2023/08/08 03:14:33;;;;;;;2.65;1.83;;;;;;;16.56;87.20;94851.84;5067569;28;20514;-78
2023/08/08 03:16:59;;;;;;;2.13;1.92;;;;;;;16.43;87.46;94868.97;5060687;28;20440;-78
2023/08/08 03:19:24;;;;;;;2.60;1.85;;;;;;;16.39;88.07;94870.53;5052059;28;20426;-78
2023/08/08 03:21:50;;;;;;;4.47;1.87;;;;;;;16.46;88.29;94865.81;5057192;28;20404;-78
2023/08/08 03:24:15;;;;;;;4.15;2.20;;;;;;;16.62;87.58;94866.84;5067056;28;20159;-76
2023/08/08 03:26:41;;;;;;;1.77;1.67;;;;;;;16.76;87.25;94865.44;5065849;28;20194;-75
2023/08/08 03:29:09;;;;;;;1.85;1.75;;;;;;;16.63;85.93;94857.81;5063678;28;20198;-75
2023/08/08 03:31:35;;;;;;;3.47;2.30;;;;;;;16.58;87.11;94873.69;5066468;28;20441;-75
2023/08/08 03:34:00;;;;;;;2.10;1.90;;;;;;;16.48;87.59;94866.38;5063711;28;20210;-76
2023/08/08 03:36:26;;;;;;;3.40;2.70;;;;;;;16.57;87.53;94861.44;5060965;28;20403;-76
2023/08/08 03:38:51;;;;;;;14.27;10.27;;;;;;;16.68;87.26;94860.53;5065776;28;20183;-76
2023/08/08 03:41:16;;;;;;;11.88;3.67;;;;;;;16.56;86.64;94857.97;5055495;28;20497;-76
2023/08/08 03:43:42;;;;;;;12.57;8.73;;;;;;;16.61;87.26;94875.84;5038796;28;20511;-76
2023/08/08 03:46:07;;;;;;;3.83;2.97;;;;;;;16.47;87.37;94879.91;5066977;28;20422;-76
2023/08/08 03:48:33;;;;;;;7.28;5.30;;;;;;;16.60;87.90;94875.03;5067706;28;20206;-76
2023/08/08 03:50:58;;;;;;;2.70;2.20;;;;;;;16.44;87.25;94862.59;5057410;28;20411;-76
2023/08/08 03:53:23;;;;;;;5.33;3.70;;;;;;;16.45;87.54;94855.44;5062647;28;20936;-76
2023/08/08 03:55:49;;;;;;;8.15;3.10;;;;;;;16.66;87.25;94867.97;5060842;28;20266;-76
2023/08/08 03:58:14;;;;;;;4.97;2.63;;;;;;;16.53;86.96;94868.28;5059661;28;20500;-76
2023/08/08 04:00:45;;;;;;;2.92;2.72;;;;;;;16.67;86.69;94868.78;5060976;28;20186;-76
2023/08/08 04:03:15;;;;;;;4.60;3.10;;;;;;;16.53;87.42;94876.25;5060331;28;20425;-76
2023/08/08 04:05:46;;;;;;;3.00;2.70;;;;;;;16.69;86.83;94887.94;5063065;28;20411;-76
2023/08/08 04:08:11;;;;;;;2.83;2.45;;;;;;;16.74;86.63;94888.78;5070815;28;20249;-76
2023/08/08 04:10:37;;;;;;;5.70;3.05;;;;;;;16.83;86.26;94899.78;5072801;28;20695;-76
2023/08/08 04:13:02;;;;;;;4.55;2.60;;;;;;;16.84;85.79;94902.22;5072711;28;20253;-76
2023/08/08 04:15:27;;;;;;;3.97;3.00;;;;;;;16.87;86.18;94906.22;5071096;28;20414;-76
2023/08/08 04:17:53;;;;;;;3.23;2.93;;;;;;;17.00;84.73;94895.19;5071334;28;20940;-76
2023/08/08 04:20:18;;;;;;;7.15;3.58;;;;;;;16.81;83.99;94867.31;5066093;28;20410;-76
2023/08/08 04:22:43;;;;;;;3.35;2.92;;;;;;;16.94;84.47;94901.53;5067402;28;20702;-76
2023/08/08 04:25:09;;;;;;;3.00;2.80;;;;;;;17.00;84.48;94911.16;5053833;28;20179;-76
2023/08/08 04:27:34;;;;;;;5.05;3.30;;;;;;;17.07;84.48;94916.28;5071654;28;20203;-75
2023/08/08 04:30:00;;;;;;;3.65;3.33;;;;;;;17.09;84.29;94908.88;5071782;28;20227;-75
2023/08/08 04:32:25;;;;;;;8.05;3.60;;;;;;;17.24;84.71;94923.13;5065165;28;20261;-75
2023/08/08 04:34:50;;;;;;;4.43;3.75;;;;;;;17.25;85.17;94906.09;5064575;28;20235;-76
2023/08/08 04:37:16;;;;;;;3.97;2.40;;;;;;;17.47;83.38;94916.69;5063351;28;20167;-76
2023/08/08 04:39:41;;;;;;;3.72;2.45;;;;;;;17.45;82.38;94897.53;5065748;28;20186;-76
2023/08/08 04:42:07;;;;;;;2.78;2.58;;;;;;;17.61;82.20;94904.59;5036169;28;20281;-76
2023/08/08 04:44:32;;;;;;;5.65;3.13;;;;;;;17.71;82.45;94893.25;5064070;28;20186;-76
2023/08/08 04:47:00;;;;;;;3.28;3.00;;;;;;;17.82;81.62;94902.09;5067731;28;20633;-76
2023/08/08 04:49:25;;;;;;;3.30;2.70;;;;;;;17.97;81.77;94916.38;5064728;28;20174;-76
2023/08/08 04:51:50;;;;;;;3.65;2.90;;;;;;;18.05;81.24;94888.44;5070898;28;20564;-76
2023/08/08 04:54:16;;;;;;;5.07;3.70;;;;;;;18.29;79.86;94926.97;5060495;28;20182;-77
2023/08/08 04:56:41;;;;;;;12.18;5.28;;;;;;;18.34;79.39;94937.66;5071434;28;20178;-76
2023/08/08 04:59:07;;;;;;;3.22;2.60;;;;;;;18.42;77.98;94947.06;5067917;28;20171;-77
2023/08/08 05:01:32;;;;;;;3.30;3.00;;;;;;;18.31;77.50;94926.72;5064090;28;20641;-76
2023/08/08 05:03:57;;;;;;;2.85;2.60;;;;;;;18.73;77.94;94950.72;5068357;28;20193;-76
2023/08/08 05:06:23;;;;;;;2.58;2.38;;;;;;;19.54;74.72;94967.91;5071495;28;20171;-77
2023/08/08 05:08:51;;;;;;;4.82;2.22;;;;;;;20.82;71.63;94980.22;5064905;28;20650;-77
2023/08/08 05:11:16;;;;;;;5.15;3.08;;;;;;;22.20;66.45;94997.28;5064263;28;20637;-76
2023/08/08 05:13:43;;;;;;;2.30;2.00;;;;;;;23.30;62.42;94997.28;5068718;28;20187;-77
2023/08/08 05:16:08;;;;;;;2.40;1.90;;;;;;;24.38;58.93;95000.97;5064506;28;20203;-77
2023/08/08 05:18:33;;;;;;;4.45;1.60;;;;;;;25.00;56.73;94988.06;5066461;28;20776;-76
2023/08/08 05:20:59;;;;;;;1.63;1.52;;;;;;;25.44;54.82;94976.69;5068707;28;20204;-76
2023/08/08 05:23:24;;;;;;;2.05;1.50;;;;;;;25.89;53.64;94991.13;5070977;28;20231;-76
2023/08/08 05:25:50;;;;;;;1.70;1.50;;;;;;;25.67;52.68;94996.47;5071308;28;20173;-76
2023/08/08 05:28:15;;;;;;;1.90;1.80;;;;;;;25.13;53.46;94998.06;5070697;28;20699;-77
2023/08/08 05:30:40;;;;;;;3.10;1.60;;;;;;;24.74;54.33;95000.34;5070779;28;20185;-76
2023/08/08 05:33:06;;;;;;;3.00;2.00;;;;;;;24.43;55.54;95000.06;5059697;28;20183;-77
2023/08/08 05:35:31;;;;;;;1.90;1.67;;;;;;;25.29;54.89;95006.66;5065993;28;20616;-77
2023/08/08 05:37:57;;;;;;;3.15;1.70;;;;;;;26.63;51.00;95018.59;5062926;28;20623;-76
2023/08/08 05:40:22;;;;;;;1.58;1.48;;;;;;;26.70;48.67;95015.47;5065123;28;20652;-77
2023/08/08 05:42:48;;;;;;;1.95;1.63;;;;;;;27.01;48.48;95024.41;5067055;28;20171;-77
2023/08/08 05:45:13;;;;;;;2.92;2.03;;;;;;;27.31;47.17;95030.13;5067737;28;20184;-77
2023/08/08 05:47:38;;;;;;;2.70;2.47;;;;;;;27.47;47.17;95041.31;5066161;28;20205;-76
2023/08/08 05:50:04;;;;;;;2.70;2.50;;;;;;;27.19;47.41;95035.31;5057926;28;20179;-76
2023/08/08 05:52:30;;;;;;;5.20;3.13;;;;;;;26.84;48.73;95039.69;5066474;28;20183;-76
2023/08/08 05:54:55;;;;;;;6.78;4.03;;;;;;;25.63;51.70;95032.44;5063740;28;20182;-77
2023/08/08 05:57:21;;;;;;;3.45;2.78;;;;;;;23.72;55.58;95005.66;5065840;28;20171;-77
2023/08/08 05:59:47;;;;;;;10.30;5.75;;;;;;;23.63;58.80;95035.09;5066310;28;20236;-76
2023/08/08 06:02:12;;;;;;;3.40;2.38;;;;;;;23.57;56.71;95028.97;5065670;28;20170;-76
2023/08/08 06:04:38;;;;;;;4.18;3.28;;;;;;;23.13;58.30;95037.25;5051859;28;20634;-76
2023/08/08 06:07:03;;;;;;;5.05;2.50;;;;;;;22.77;59.18;95052.91;5065610;28;20258;-76
2023/08/08 06:09:29;;;;;;;3.72;2.50;;;;;;;22.26;60.88;95047.09;5060926;28;20175;-76
2023/08/08 06:11:54;;;;;;;2.95;2.00;;;;;;;22.33;60.97;95042.22;5051970;28;20181;-77
2023/08/08 06:14:19;;;;;;;3.05;2.20;;;;;;;22.87;60.60;95033.22;5068437;28;20635;-78
2023/08/08 06:16:46;;;;;;;2.47;1.85;;;;;;;23.46;58.47;95015.91;5067621;28;20182;-78
2023/08/08 06:19:13;;;;;;;1.98;1.80;;;;;;;24.24;56.60;95048.53;5071811;28;20147;-78
2023/08/08 06:21:39;;;;;;;2.47;2.28;;;;;;;24.60;55.64;95031.84;5066629;28;20183;-77
2023/08/08 06:24:04;;;;;;;2.40;2.20;;;;;;;24.98;54.52;95036.06;5062181;28;20183;-77
2023/08/08 06:26:36;;;;;;;9.65;2.80;;;;;;;25.09;53.93;95021.28;5062867;28;20222;-78
2023/08/08 06:29:01;;;;;;;4.45;3.10;;;;;;;25.22;53.62;95035.91;5065386;28;20233;-76
2023/08/08 06:31:26;;;;;;;8.52;4.45;;;;;;;25.33;55.35;95040.00;5063197;28;20199;-76
2023/08/08 06:33:52;;;;;;;3.10;1.90;;;;;;;25.53;53.48;95036.09;5062700;28;20251;-78
2023/08/08 06:36:17;;;;;;;2.22;2.00;;;;;;;25.58;53.37;95022.53;5069008;28;20529;-76
2023/08/08 06:38:42;;;;;;;2.83;2.28;;;;;;;25.61;51.14;95034.63;5067607;28;20206;-76
2023/08/08 06:41:08;;;;;;;3.38;2.60;;;;;;;25.38;52.49;95033.69;5057291;28;20211;-76
2023/08/08 06:43:33;;;;;;;2.47;1.60;;;;;;;24.90;51.92;95039.41;5067411;28;20265;-77
2023/08/08 06:45:59;;;;;;;2.20;2.00;;;;;;;24.33;52.49;95041.41;5059045;28;20179;-77
2023/08/08 06:48:24;;;;;;;3.15;2.30;;;;;;;24.35;53.77;95044.63;5067540;28;20281;-79
2023/08/08 06:50:50;;;;;;;1.35;1.25;;;;;;;24.25;50.00;95025.91;5062018;28;20253;-79
2023/08/08 06:53:17;;;;;;;2.40;1.33;;;;;;;23.83;51.57;95039.41;5063467;28;20225;-77
2023/08/08 06:55:43;;;;;;;2.55;1.38;;;;;;;23.53;51.03;95027.13;5068051;28;20646;-78
2023/08/08 06:58:08;;;;;;;1.40;1.30;;;;;;;23.64;52.66;95029.44;5071332;28;20171;-80
2023/08/08 07:00:33;;;;;;;1.42;1.33;;;;;;;23.89;51.06;95057.88;5053244;28;20190;-77
2023/08/08 07:02:59;;;;;;;3.63;1.60;;;;;;;24.29;50.59;95061.94;5064205;28;20179;-76
2023/08/08 07:05:25;;;;;;;2.55;1.65;;;;;;;24.58;49.80;95031.31;5064513;28;20190;-79
2023/08/08 07:07:51;;;;;;;1.33;1.23;;;;;;;24.79;48.71;95048.75;5067525;28;20249;-79
2023/08/08 07:10:18;;;;;;;3.25;1.60;;;;;;;24.66;47.66;95047.59;5073827;28;20626;-79
2023/08/08 07:12:44;;;;;;;1.70;1.60;;;;;;;24.74;48.88;95038.06;5074145;28;20186;-83
2023/08/08 07:15:09;;;;;;;2.10;1.90;;;;;;;25.02;48.83;95045.16;5074328;28;20178;-82
2023/08/08 07:17:35;;;;;;;2.10;1.90;;;;;;;25.19;47.49;95045.38;5055765;28;20167;-77
2023/08/08 07:20:01;;;;;;;2.15;1.80;;;;;;;25.43;47.57;95041.69;5073026;28;20561;-84
2023/08/08 07:22:26;;;;;;;3.95;1.80;;;;;;;25.70;47.53;95041.72;5073210;28;20201;-80
2023/08/08 07:24:52;;;;;;;4.20;1.70;;;;;;;25.43;47.92;95037.09;5073985;28;20181;-79
2023/08/08 07:27:17;;;;;;;3.20;1.63;;;;;;;24.89;47.13;95047.78;5073044;28;20232;-76
2023/08/08 07:29:43;;;;;;;2.72;1.50;;;;;;;23.52;48.01;95030.94;5072138;28;20198;-76
2023/08/08 07:32:08;;;;;;;1.40;1.30;;;;;;;23.13;51.73;95031.06;5071983;28;20573;-76
2023/08/08 07:34:34;;;;;;;2.72;1.98;;;;;;;23.16;51.44;95041.25;5071303;28;20174;-75
2023/08/08 07:37:00;;;;;;;6.38;1.50;;;;;;;23.68;52.95;95037.72;5070960;28;20174;-74
2023/08/08 07:39:25;;;;;;;1.27;1.17;;;;;;;24.36;50.13;95042.72;5071470;28;20175;-75
2023/08/08 07:41:51;;;;;;;2.63;1.73;;;;;;;24.84;48.09;95043.28;5072467;28;20237;-75
2023/08/08 07:44:17;;;;;;;1.30;1.20;;;;;;;24.90;45.70;95052.88;5070939;28;20232;-75
2023/08/08 07:46:42;;;;;;;2.38;0.90;;;;;;;24.63;46.15;95031.25;5071653;28;20213;-75
2023/08/08 07:49:09;;;;;;;2.65;1.30;;;;;;;24.32;48.35;95049.75;5071831;28;20213;-75
2023/08/08 07:51:35;;;;;;;2.40;1.85;;;;;;;23.63;49.90;95046.63;5071328;28;20213;-76
2023/08/08 07:54:00;;;;;;;1.80;1.48;;;;;;;24.19;47.26;95051.28;5072291;28;20209;-74
2023/08/08 07:56:26;;;;;;;1.35;1.25;;;;;;;24.56;48.44;95039.69;5070993;28;20183;-75
2023/08/08 07:58:51;;;;;;;1.02;1.00;;;;;;;24.43;46.54;95043.16;5071230;28;20556;-75
2023/08/08 08:01:17;;;;;;;3.45;1.75;;;;;;;24.85;47.33;95057.53;5070968;28;20565;-74
2023/08/08 08:03:43;;;;;;;4.80;1.10;;;;;;;24.21;46.76;95030.31;5069879;28;20182;-75
2023/08/08 08:06:08;;;;;;;1.77;1.50;;;;;;;24.61;46.67;95045.00;5069063;28;20174;-76
2023/08/08 08:08:33;;;;;;;2.45;1.50;;;;;;;25.03;47.52;95051.34;5071213;28;20298;-75
2023/08/08 08:11:01;;;;;;;2.80;1.70;;;;;;;25.52;46.07;95047.97;5071692;28;20178;-76
2023/08/08 08:13:26;;;;;;;2.22;1.83;;;;;;;25.80;45.92;95035.31;5067921;28;20562;-74
2023/08/08 08:15:52;;;;;;;3.20;1.45;;;;;;;26.04;43.97;95043.16;5070874;28;20618;-74
2023/08/08 08:18:17;;;;;;;4.10;1.90;;;;;;;26.18;44.04;95039.34;5071218;28;20261;-74
2023/08/08 08:20:43;;;;;;;2.03;1.88;;;;;;;26.13;45.00;95055.63;5071535;28;20692;-74
2023/08/08 08:23:09;;;;;;;4.90;2.47;;;;;;;25.98;44.85;95052.47;5070460;28;20174;-76
2023/08/08 08:25:35;;;;;;;1.20;1.10;;;;;;;26.01;46.95;95049.16;5054299;28;20221;-77
2023/08/08 08:28:00;;;;;;;3.60;1.45;;;;;;;26.09;46.15;95045.75;5070207;28;20766;-74
2023/08/08 08:30:26;;;;;;;2.83;1.52;;;;;;;25.89;44.30;95039.69;5070973;28;20248;-74
2023/08/08 08:32:52;;;;;;;2.55;1.55;;;;;;;25.77;44.80;95055.59;5070882;28;20626;-74
2023/08/08 08:35:17;;;;;;;1.83;1.67;;;;;;;25.55;45.32;95063.56;5070379;28;20185;-74
2023/08/08 08:37:43;;;;;;;3.10;1.80;;;;;;;25.41;45.57;95054.69;5070857;28;20253;-74
2023/08/08 08:40:09;;;;;;;1.95;1.75;;;;;;;25.65;45.55;95052.63;5070005;28;20218;-74
2023/08/08 08:42:35;;;;;;;5.63;2.08;;;;;;;25.56;44.80;95039.00;5068853;28;20185;-73
2023/08/08 08:45:03;;;;;;;1.58;1.40;;;;;;;25.25;46.55;95039.91;5070117;28;20174;-74
2023/08/08 08:47:31;;;;;;;4.05;2.17;;;;;;;25.38;47.00;95050.69;5068960;28;20198;-74
2023/08/08 08:49:57;;;;;;;2.67;2.42;;;;;;;25.19;45.73;95037.28;5069346;28;20202;-74
2023/08/08 08:52:23;;;;;;;3.75;3.10;;;;;;;25.11;46.68;95039.88;5069388;28;20178;-73
2023/08/08 08:54:51;;;;;;;4.68;1.77;;;;;;;24.88;46.66;95060.47;5069232;28;20206;-74
2023/08/08 08:57:17;;;;;;;3.53;2.85;;;;;;;24.49;46.85;95033.09;5068721;28;20174;-74
2023/08/08 08:59:42;;;;;;;2.30;2.10;;;;;;;24.31;49.51;95046.28;5068573;28;20190;-74
2023/08/08 09:02:09;;;;;;;5.65;1.70;;;;;;;24.68;49.50;95050.00;5068248;28;20174;-73
2023/08/08 09:04:35;;;;;;;1.60;1.50;;;;;;;24.71;48.08;95049.44;5069329;28;20182;-73
2023/08/08 09:07:01;;;;;;;3.22;1.65;;;;;;;24.81;47.99;95046.56;5068577;28;20592;-73
2023/08/08 09:09:31;;;;;;;2.45;1.70;;;;;;;24.53;47.64;95024.16;5069043;28;20202;-73
2023/08/08 09:11:58;;;;;;;1.52;1.42;;;;;;;24.59;47.21;95047.19;5068945;28;20221;-74
2023/08/08 09:14:26;;;;;;;2.63;1.33;;;;;;;24.22;45.84;95026.50;5069961;28;20633;-73
2023/08/08 09:16:53;;;;;;;2.05;1.60;;;;;;;24.32;49.50;95042.50;5068731;28;20181;-75
2023/08/08 09:19:19;;;;;;;2.13;1.85;;;;;;;24.77;48.84;95048.25;5067058;28;20183;-75
2023/08/08 09:21:45;;;;;;;2.47;1.42;;;;;;;25.13;47.23;95029.59;5067912;28;20273;-75
2023/08/08 09:24:10;;;;;;;1.40;1.30;;;;;;;25.39;45.79;95046.88;5069636;28;20296;-75
2023/08/08 09:26:36;;;;;;;3.70;1.52;;;;;;;25.41;44.69;95046.59;5070119;28;20190;-75
2023/08/08 09:29:02;;;;;;;2.42;1.20;;;;;;;25.57;45.82;95031.72;5070350;28;20577;-75
2023/08/08 09:31:29;;;;;;;3.22;1.33;;;;;;;25.55;47.07;95031.22;5070190;28;20178;-75
2023/08/08 09:33:57;;;;;;;1.77;1.20;;;;;;;25.61;43.68;95053.50;5068628;28;20261;-75
2023/08/08 09:36:23;;;;;;;1.20;1.10;;;;;;;25.52;45.05;95046.09;5068899;28;20622;-75
2023/08/08 09:38:49;;;;;;;4.10;1.33;;;;;;;25.39;45.06;95038.81;5069527;28;20181;-74
2023/08/08 09:41:14;;;;;;;1.52;1.20;;;;;;;25.28;45.70;95036.59;5069037;28;20182;-75
2023/08/08 09:43:43;;;;;;;2.97;1.30;;;;;;;25.32;45.91;95051.88;5067366;28;20177;-75
2023/08/08 09:46:09;;;;;;;1.55;1.45;;;;;;;24.87;45.39;95044.59;5066943;28;20637;-75
2023/08/08 09:48:36;;;;;;;2.45;1.50;;;;;;;24.75;46.10;95053.94;5067048;28;20200;-75
2023/08/08 09:51:02;;;;;;;1.63;1.52;;;;;;;24.62;46.00;95051.19;5067639;28;20178;-75
2023/08/08 09:53:27;;;;;;;1.73;1.63;;;;;;;24.80;45.82;95048.47;5068204;28;20181;-75
2023/08/08 09:55:56;;;;;;;2.28;1.67;;;;;;;24.70;46.03;95054.03;5068328;28;20186;-75
2023/08/08 09:58:22;;;;;;;2.00;1.80;;;;;;;24.72;48.16;95045.66;5050835;28;20534;-75
2023/08/08 10:00:51;;;;;;;2.10;1.52;;;;;;;24.88;46.30;95060.47;5068879;28;20575;-75
2023/08/08 10:03:18;;;;;;;1.80;1.70;;;;;;;24.85;45.86;95034.09;5069070;28;20257;-75
2023/08/08 10:05:44;;;;;;;5.40;1.65;;;;;;;25.03;45.27;95032.47;5068517;28;20182;-75
2023/08/08 10:08:09;;;;;;;5.07;1.95;;;;;;;25.12;46.46;95044.16;5081094;28;20231;-75
2023/08/08 10:10:37;;;;;;;1.60;1.50;;;;;;;24.60;46.19;95043.41;5067179;28;20261;-75
2023/08/08 10:13:03;;;;;;;2.28;1.45;;;;;;;23.85;47.51;95043.41;5084270;28;20656;-75
2023/08/08 10:15:28;;;;;;;1.80;1.70;;;;;;;23.95;50.12;95031.72;5068805;28;20206;-75
2023/08/08 10:17:57;;;;;;;1.40;1.30;;;;;;;24.39;48.82;95047.50;5068849;28;20178;-75
2023/08/08 10:20:24;;;;;;;1.63;1.52;;;;;;;24.74;47.90;95038.06;5068158;28;20244;-75
2023/08/08 10:22:52;;;;;;;2.47;1.52;;;;;;;25.03;46.28;95049.44;5068372;28;20170;-75
2023/08/08 10:25:26;;;;;;;1.63;1.40;;;;;;;24.82;46.13;95024.72;5068536;28;20258;-74
2023/08/08 10:28:06;;;;;;;1.80;1.50;;;;;;;24.76;45.76;95043.94;5063396;28;20197;-74
2023/08/08 10:31:16;;;;;;;1.77;1.42;;;;;;;24.86;48.07;95054.56;5068857;28;20182;-75
2023/08/08 10:33:43;;;;;;;1.30;1.20;;;;;;;24.96;46.54;95049.03;4986400;28;20247;-75
2023/08/08 10:36:09;;;;;;;3.22;1.33;;;;;;;24.84;47.22;95054.03;5058754;28;20256;-74
2023/08/08 10:38:50;;;;;;;1.25;1.25;;;;;;;24.99;47.42;95047.66;5059912;28;20210;-75
2023/08/08 10:41:20;;;;;;;1.92;1.20;;;;;;;24.99;45.85;95044.97;5073624;28;20181;-77
2023/08/08 10:43:53;;;;;;;1.10;1.10;;;;;;;25.04;47.80;95034.06;5072998;28;20178;-77
2023/08/08 10:46:32;;;;;;;2.67;1.15;;;;;;;24.96;46.18;95016.69;5073298;28;20166;-75
2023/08/08 10:48:59;;;;;;;3.55;1.52;;;;;;;25.07;47.38;95034.28;5072969;28;20213;-77
2023/08/08 10:51:39;;;;;;;3.35;1.00;;;;;;;24.92;45.35;95023.75;5073407;28;20174;-76
2023/08/08 10:54:18;;;;;;;3.53;1.23;;;;;;;24.88;47.10;95019.25;5073044;28;20203;-77
2023/08/08 10:56:51;;;;;;;1.20;1.10;;;;;;;25.00;46.71;95025.78;5055720;28;20170;-78
2023/08/08 10:59:19;;;;;;;1.98;1.20;;;;;;;24.91;46.18;95026.75;5073708;28;20604;-76
2023/08/08 11:01:46;;;;;;;1.10;1.10;;;;;;;24.72;45.75;95024.09;5073658;28;20580;-78
2023/08/08 11:04:12;;;;;;;2.72;1.10;;;;;;;24.57;46.48;95016.25;5073484;28;20634;-79
2023/08/08 11:06:39;;;;;;;1.33;1.23;;;;;;;24.59;46.92;95017.56;5073038;28;20222;-76
2023/08/08 11:09:08;;;;;;;1.23;1.17;;;;;;;24.41;47.07;95000.38;5072845;28;20226;-75
2023/08/08 11:11:41;;;;;;;4.47;1.15;;;;;;;24.54;47.05;95016.88;5072456;28;20163;-76
2023/08/08 11:14:15;;;;;;;1.33;1.23;;;;;;;24.61;47.69;95022.66;5072665;28;20177;-78
2023/08/08 11:16:43;;;;;;;1.30;1.17;;;;;;;24.57;46.13;95022.44;5072913;28;20983;-77
2023/08/08 11:19:10;;;;;;;1.02;1.00;;;;;;;24.47;46.20;95013.75;5072968;28;20983;-79
2023/08/08 11:21:46;;;;;;;1.20;1.20;;;;;;;24.19;45.95;95019.00;5052667;28;20243;-77
2023/08/08 11:24:12;;;;;;;1.67;1.20;;;;;;;23.59;46.84;94999.94;5073738;28;20180;-78
2023/08/08 11:26:40;;;;;;;1.10;1.10;;;;;;;23.72;49.03;95019.91;5073271;28;20670;-79
2023/08/08 11:29:07;;;;;;;1.23;1.13;;;;;;;23.90;48.73;94999.50;5071083;28;20190;-76
2023/08/08 11:31:34;;;;;;;1.50;1.40;;;;;;;24.18;48.76;95024.66;5070587;28;20307;-75